Aérodrome :
LOGIN :

S'inscrire | Disclaimer

   EN    FR    IT 

 










Légende :    VFR   VFR Marginal   IFR   IFR Intensif   IFR Très Intensif
Visi : 
Plafond : 
>= 8 km
>= 3000ft
5 à 8 km
1000 à 3000 ft
1500m à 5 km
500 à 1000 ft
800 à 1500m
200 à 500 ft
< 800m
< 200 ft
Symboles :   Orages  Brouillard  Fortes neiges  Fortes précipitations  Vent > 20 kt
SIGMETs :   Divers  Orages  Givrage  Turbulence  Onde Orograph.  Cendres Volcan.






- Altitude de l'aérodrome : 461 ft
- Code IATA : WIE


ETOU - Wiesbaden Army

DERNIER METAR :
  • 300956Z AUTO 08006KT 9999 CLR 04/M12 A3039 RMK AO2 SLP301 T00401125 $

METARs EXPIRÉS :
  • 300856Z AUTO 05013G18KT 9999 CLR 03/M12 A3042 RMK AO2 SLP311 T00321119 50001 $
  • 300756Z AUTO 06007KT 9999 CLR 02/M13 A3042 RMK AO2 SLP311 T00241126 $

TAF TAF ETOU
Valide du 30 à 05h jusqu'au 31 à 11h UTC


300500Z 3005/3111 02010G15KT 9999 FEW070 QNH3038INS
BECMG 3020/3021 35006KT 9999 BKN030 QNH3028INS TX07/3014Z TN00/3007Z



MET'MAP, la Météo Aéronautique d'un coup d'oeil ! - Copyright ORBIFLY Décembre 2007 - Disclaimer

ORBIFLY MET'MAP TEAM :

Programmation & Développement : Alexandra Zaïnal
Sur une idée originale de : Baudouin d'Aumeries
Assistance à la programmation : Marc-Olivier Méhu
Soutien technique & logistique : Manuel Goepfert

Contact : metmap@orbifly.com




SOURCES & CREDITS :

   NOAA